Leeds, MA (01053)

7:50 PM EDT on August 04, 2015 (GMT -0400)
Behind Stop and Shop | | Change Station
CLOSE
Current Station
Personal Weather Station
Location: Northampton, MA
Elevation: 177 ft
Nearby Weather Stations
Active Advisory: Severe Thunderstorm Watch Active Notice: Local Storm Report

Elev 177 ft 42.33 °N, 72.64 °W | Updated 6 minutes ago

Partly Cloudy
Partly Cloudy
71.0 °F
Feels Like 71.0 °F
N
0.0
Wind Variable Wind from NW
Gusts 0.0 mph

Today
High -- | Low -- °F
--% Chance of Precip.
Yesterday
High -- | Low -- °F
Precip. -- in
5:46 AM 8:07 PM
Waning Gibbous, 73% visible
Pressure 29.84 in
Visibility 10.0 miles
Clouds Scattered Clouds 6000 ft
Mostly Cloudy 11000 ft
Dew Point 67 °F
Humidity 86%
Rainfall 0.41 in
Snow Depth Not available.
UV 0 out of 12
Pollen 7.80 out of 12
Air Quality Not available.
Flu Activity Not available.
METAR KBAF 042253Z 31007KT 10SM SCT060 BKN110 24/18 A2985 RMK AO2 SLP104 T02440183

More Conditions Fewer Conditions

Pressure 29.84 in
Visibility 10.0 miles
Clouds Scattered Clouds 6000 ft
Mostly Cloudy 11000 ft
Dew Point 67 °F
Humidity 86%
Rainfall 0.41 in
Snow Depth Not available.
UV 0 out of 12
Pollen 7.80 out of 12
Air Quality Not available.
Flu Activity Not available.
METAR KBAF 042253Z 31007KT 10SM SCT060 BKN110 24/18 A2985 RMK AO2 SLP104 T02440183

More Conditions Fewer Conditions

10-Day Weather Forecast

×

Almanac

Astronomy

Aug. 04, 2015 Rise Set
Actual Time
Civil Twilight
Nautical Twilight
Astronomical Twilight
Moon
Length of Visible Light
Length of Day
Tomorrow will be .
, % of the Moon is Illuminated

Today's Extremes

State Highs State Lows

Community

WunderPhotos

Upload Photos

1,844,023 photos uploaded!

WunderBlogs® & News

Nearby

Air Quality

  Air Quality AQ Index Pollutant
Not available.

Snow Depth

Station Depth Elevation

Earthquake Activity

City Distance Mag. Time & Date
Minimum magnitude displayed is 2.5.

Coastal Water Temperatures

Place Temperature

Stations

Nearby Weather Stations

Station Location Temp. Windchill Dew Point Humidity Wind Precip. Elev Updated Type
                   
Severe Thunderstorm Watch
Statement as of 7:43 PM EDT on August 04, 2015

Severe Thunderstorm Watch 469 remains in effect until 800 PM EDT
for the following locations


MA
. Massachusetts counties included are

Essex Franklin Hampden
Hampshire Middlesex Norfolk
Suffolk Worcester